Time;durP1;ratioP1;P1;durP2;ratioP2;P2;SDS_P1;SDS_P2;PMS_P1;PMS_P2;Temp;Humidity;BMP_temperature;BMP_pressure;BME280_temperature;BME280_humidity;BME280_pressure;Samples;Min_cycle;Max_cycle;Signal;HPM_P1;HPM_P2
2022/03/07 00:13:31;;;;;;;22.13;8.83;;;;;;;1.95;63.79;100984.56;712802;1176;114627;-72
2022/03/07 00:28:36;;;;;;;20.65;10.25;;;;;;;1.68;64.26;100984.77;713140;1174;114776;-75
2022/03/07 00:43:40;;;;;;;24.23;10.45;;;;;;;1.42;64.40;100985.80;712856;1177;114200;-74
2022/03/07 00:58:43;;;;;;;25.10;11.55;;;;;;;1.23;65.19;100983.91;712994;1174;115055;-74
2022/03/07 01:13:48;;;;;;;25.50;12.77;;;;;;;1.10;65.66;100974.94;713035;1175;114948;-73
2022/03/07 01:28:52;;;;;;;27.28;12.50;;;;;;;0.86;66.12;100948.25;712832;1174;114914;-74
2022/03/07 01:43:56;;;;;;;28.78;11.78;;;;;;;0.66;66.35;100934.35;713023;1176;115473;-74
2022/03/07 01:59:04;;;;;;;101.73;35.23;;;;;;;0.58;67.18;100928.59;713001;1174;114916;-74
2022/03/07 02:14:14;;;;;;;38.20;17.85;;;;;;;0.51;67.95;100912.48;713328;1174;114718;-73
2022/03/07 02:29:16;;;;;;;174.23;52.03;;;;;;;0.46;68.24;100907.51;712913;1174;117481;-74
2022/03/07 02:44:18;;;;;;;54.53;20.27;;;;;;;0.58;68.12;100915.69;712967;1174;116152;-74
2022/03/07 02:59:20;;;;;;;40.05;18.25;;;;;;;0.84;69.11;100909.56;712835;1174;115323;-73
2022/03/07 03:14:23;;;;;;;23.63;11.83;;;;;;;0.34;68.41;100900.18;713005;1174;115748;-73
2022/03/07 03:29:26;;;;;;;18.95;9.20;;;;;;;0.24;69.70;100881.61;713150;1174;115537;-77
2022/03/07 03:44:31;;;;;;;23.40;10.30;;;;;;;-0.04;70.45;100868.81;713045;1174;115618;-72
2022/03/07 03:59:35;;;;;;;22.55;11.13;;;;;;;-0.19;69.85;100852.97;712954;1174;115806;-72
2022/03/07 04:14:39;;;;;;;15.58;8.78;;;;;;;-0.44;71.07;100841.81;716912;1165;116524;-77
2022/03/07 04:29:42;;;;;;;26.48;11.33;;;;;;;-0.64;71.02;100848.46;712993;1174;115589;-76
2022/03/07 04:44:44;;;;;;;23.50;11.83;;;;;;;-0.80;71.82;100837.80;713044;1174;115991;-77
2022/03/07 04:59:46;;;;;;;23.10;11.75;;;;;;;-0.77;72.98;100842.85;712967;1176;116188;-77
2022/03/07 05:14:49;;;;;;;24.83;12.23;;;;;;;-0.76;73.39;100841.14;713624;1177;115998;-78
2022/03/07 05:29:51;;;;;;;38.18;17.58;;;;;;;-0.59;73.58;100844.00;713666;1175;115891;-78
2022/03/07 05:44:53;;;;;;;69.00;29.45;;;;;;;-0.66;73.26;100845.11;713592;1175;114847;-72
2022/03/07 05:59:56;;;;;;;65.08;25.45;;;;;;;-0.63;73.90;100847.58;713203;1174;115208;-73
2022/03/07 06:15:03;;;;;;;41.85;19.88;;;;;;;-0.54;74.24;100855.01;713348;1175;116234;-74
2022/03/07 06:30:06;;;;;;;53.87;23.57;;;;;;;-0.21;74.86;100852.20;713308;1175;115138;-75
2022/03/07 06:45:12;;;;;;;71.88;30.63;;;;;;;0.04;75.26;100864.26;713783;1177;116156;-76
2022/03/07 07:00:15;;;;;;;37.98;16.98;;;;;;;-0.12;78.65;100857.92;713327;1175;116317;-76
2022/03/07 07:15:18;;;;;;;30.67;14.03;;;;;;;0.23;81.04;100863.60;713562;1175;116862;-80
2022/03/07 07:30:22;;;;;;;34.13;15.37;;;;;;;0.45;81.91;100861.06;714104;1177;115868;-76
2022/03/07 07:45:25;;;;;;;95.15;34.23;;;;;;;1.14;81.78;100842.94;713611;1175;115183;-80
2022/03/07 08:00:27;;;;;;;39.98;16.78;;;;;;;1.47;82.95;100847.65;713676;1177;115868;-74
2022/03/07 08:15:29;;;;;;;61.43;24.50;;;;;;;1.89;82.61;100858.86;713603;1177;114523;-74
2022/03/07 08:30:33;;;;;;;46.38;17.15;;;;;;;2.63;83.00;100855.60;714207;1176;115350;-84
2022/03/07 08:45:37;;;;;;;89.15;31.50;;;;;;;3.03;82.67;100845.13;715224;1175;114336;-83
2022/03/07 09:00:57;;;;;;;305.10;92.70;;;;;;;3.98;81.30;100846.53;714546;1177;115254;-82
2022/03/07 09:16:00;;;;;;;156.95;66.88;;;;;;;5.41;79.96;100856.14;715034;1176;114950;-82
2022/03/07 09:31:02;;;;;;;56.60;27.03;;;;;;;7.46;78.16;100840.13;713951;1175;115666;-76
2022/03/07 09:46:05;;;;;;;38.45;17.58;;;;;;;8.19;74.32;100864.00;713956;1177;115138;-75
2022/03/07 10:01:10;;;;;;;18.30;9.07;;;;;;;8.98;70.58;100874.23;713440;1177;115166;-76
2022/03/07 10:16:13;;;;;;;20.70;9.50;;;;;;;9.26;67.89;100859.13;713589;1177;115335;-74
2022/03/07 10:31:18;;;;;;;19.70;8.73;;;;;;;9.96;66.70;100860.03;713843;1175;114815;-80
2022/03/07 10:46:26;;;;;;;24.20;7.85;;;;;;;10.32;64.80;100851.13;713901;1177;116012;-77
2022/03/07 11:01:33;;;;;;;16.00;7.80;;;;;;;10.36;62.70;100838.64;714340;1175;114735;-78
2022/03/07 11:16:38;;;;;;;21.35;7.70;;;;;;;11.19;62.21;100832.95;714399;1174;114466;-73
2022/03/07 11:31:41;;;;;;;68.85;28.85;;;;;;;10.69;59.62;100838.70;714138;1170;116798;-73
2022/03/07 11:46:51;;;;;;;151.20;56.50;;;;;;;9.90;59.40;100836.94;713509;1175;115489;-74
2022/03/07 12:01:54;;;;;;;55.65;23.75;;;;;;;9.97;58.70;100832.88;714413;1176;116215;-73
2022/03/07 12:17:00;;;;;;;22.58;11.15;;;;;;;10.21;57.34;100819.65;713547;1177;114337;-75
2022/03/07 12:32:06;;;;;;;13.10;5.50;;;;;;;10.81;56.47;100822.81;716313;1177;115925;-77
2022/03/07 12:47:10;;;;;;;12.30;4.27;;;;;;;11.80;55.87;100809.44;713644;1177;115635;-79
2022/03/07 13:02:13;;;;;;;16.55;6.83;;;;;;;11.93;54.35;100813.64;713633;1177;114277;-76
2022/03/07 13:17:18;;;;;;;36.95;13.38;;;;;;;13.31;54.50;100811.16;713982;1177;115879;-80
2022/03/07 13:32:21;;;;;;;16.60;5.80;;;;;;;13.29;51.88;100812.30;714153;1176;114687;-78
2022/03/07 13:47:31;;;;;;;10.90;4.48;;;;;;;17.94;51.62;100807.98;713637;1175;115394;-81
2022/03/07 14:02:38;;;;;;;10.93;4.45;;;;;;;13.21;48.35;100826.17;713630;1177;114531;-80
2022/03/07 14:17:41;;;;;;;11.65;5.53;;;;;;;11.91;50.84;100840.06;713513;1177;114603;-81
2022/03/07 14:32:44;;;;;;;53.40;18.63;;;;;;;10.10;52.36;100846.70;714032;1174;114595;-82
2022/03/07 14:47:49;;;;;;;19.17;7.00;;;;;;;9.59;53.70;100853.16;713670;1174;115056;-83
2022/03/07 15:02:52;;;;;;;19.95;7.70;;;;;;;13.73;53.06;100868.02;713600;1177;114127;-82
2022/03/07 15:17:55;;;;;;;93.95;35.75;;;;;;;14.41;50.37;100877.54;713687;1174;115890;-77
2022/03/07 15:32:57;;;;;;;35.13;13.60;;;;;;;9.68;53.04;100906.66;713584;1177;114978;-80
2022/03/07 15:47:59;;;;;;;106.53;40.00;;;;;;;8.52;55.47;100919.34;713608;1175;115173;-78
2022/03/07 16:03:01;;;;;;;25.57;10.80;;;;;;;7.50;58.50;100935.59;713463;1176;114574;-79
2022/03/07 16:18:05;;;;;;;41.73;13.93;;;;;;;7.10;60.13;100953.81;713796;1177;114703;-80
2022/03/07 16:33:07;;;;;;;32.00;12.30;;;;;;;6.75;62.04;100966.42;713734;1177;115249;-79
2022/03/07 16:48:11;;;;;;;36.17;14.53;;;;;;;6.46;63.31;100977.67;713435;1175;115063;-80
2022/03/07 17:03:13;;;;;;;40.75;15.05;;;;;;;6.16;64.89;100991.60;713487;1177;114829;-79
2022/03/07 17:18:16;;;;;;;132.68;39.95;;;;;;;6.03;65.85;101008.88;713310;1177;115043;-79
2022/03/07 17:33:18;;;;;;;147.70;54.70;;;;;;;5.89;66.46;101007.01;713486;1175;114586;-77
2022/03/07 17:48:22;;;;;;;163.90;49.18;;;;;;;5.70;66.11;100999.41;713377;1176;115669;-77
2022/03/07 18:03:25;;;;;;;129.77;39.23;;;;;;;5.44;66.41;101009.50;713494;1174;115321;-76
2022/03/07 18:18:27;;;;;;;69.18;23.95;;;;;;;5.16;66.46;101020.58;713684;1176;114561;-80
2022/03/07 18:33:30;;;;;;;147.63;50.30;;;;;;;5.06;67.68;101038.41;714836;1177;115106;-80
2022/03/07 18:48:34;;;;;;;96.17;32.67;;;;;;;4.97;67.97;101044.93;714344;1177;115565;-82
2022/03/07 19:03:37;;;;;;;67.53;25.77;;;;;;;5.04;68.25;101061.08;715055;1177;114724;-81
2022/03/07 19:18:41;;;;;;;50.43;18.35;;;;;;;5.00;68.36;101075.14;713598;1175;115500;-77
2022/03/07 19:33:43;;;;;;;126.10;37.23;;;;;;;4.93;68.89;101090.22;714789;1176;114307;-80
2022/03/07 19:48:48;;;;;;;116.05;33.80;;;;;;;4.67;70.46;101109.73;715123;1177;114506;-80
2022/03/07 20:03:50;;;;;;;111.53;28.28;;;;;;;4.68;71.21;101128.80;713893;1175;116455;-79
2022/03/07 20:18:53;;;;;;;34.83;13.33;;;;;;;4.58;70.64;101120.59;714932;1177;116594;-78
2022/03/07 20:33:56;;;;;;;104.80;30.97;;;;;;;4.69;71.80;101120.09;720299;1176;115835;-77
2022/03/07 20:48:58;;;;;;;69.65;21.58;;;;;;;4.74;71.21;101128.47;714812;1177;114782;-75
2022/03/07 21:04:00;;;;;;;68.40;20.00;;;;;;;4.63;70.76;101137.67;713594;1177;116328;-74
2022/03/07 21:19:03;;;;;;;68.55;18.38;;;;;;;4.38;70.31;101138.03;713789;1177;115620;-75
2022/03/07 21:34:05;;;;;;;30.45;10.35;;;;;;;3.87;71.93;101123.98;713561;1175;115577;-74
2022/03/07 21:49:08;;;;;;;74.07;17.83;;;;;;;3.52;71.58;101139.43;713274;1175;114720;-73
2022/03/07 22:04:10;;;;;;;143.23;36.77;;;;;;;3.28;71.40;101132.66;713720;1174;116760;-74
2022/03/07 22:19:13;;;;;;;182.90;47.15;;;;;;;2.93;71.92;101132.45;713392;1174;114481;-75
2022/03/07 22:34:15;;;;;;;510.18;123.25;;;;;;;2.53;72.30;101123.73;713277;1175;115021;-75
2022/03/07 22:49:18;;;;;;;137.75;37.33;;;;;;;2.25;72.86;101132.62;713093;1176;116414;-74
2022/03/07 23:04:20;;;;;;;672.05;162.00;;;;;;;2.07;72.67;101139.38;713457;1175;114714;-74
2022/03/07 23:19:22;;;;;;;140.15;37.58;;;;;;;1.93;72.69;101142.48;713318;1174;115557;-74
2022/03/07 23:34:24;;;;;;;71.95;21.28;;;;;;;1.60;72.99;101148.03;713465;1177;115416;-77
2022/03/07 23:49:27;;;;;;;88.35;26.13;;;;;;;1.43;73.44;101155.56;713371;1174;115670;-73
